Time;durP1;ratioP1;P1;durP2;ratioP2;P2;SDS_P1;SDS_P2;PMS_P1;PMS_P2;Temp;Humidity;BMP_temperature;BMP_pressure;BME280_temperature;BME280_humidity;BME280_pressure;Samples;Min_cycle;Max_cycle;Signal;HPM_P1;HPM_P2
2023/07/18 00:01:39;;;;;;;4.05;1.80;;;;;;;14.80;69.79;101993.72;4965621;28;20155;-70
2023/07/18 00:04:07;;;;;;;3.65;1.60;;;;;;;14.78;70.37;101998.19;4967101;28;20047;-70
2023/07/18 00:06:34;;;;;;;6.00;1.90;;;;;;;14.74;70.17;101989.44;4965933;28;20050;-70
2023/07/18 00:09:02;;;;;;;4.70;2.20;;;;;;;14.71;70.67;102000.16;4963263;28;20513;-71
2023/07/18 00:11:29;;;;;;;6.40;2.00;;;;;;;14.67;70.78;101993.22;4959417;28;20523;-71
2023/07/18 00:13:56;;;;;;;5.70;1.90;;;;;;;14.62;70.86;101988.00;4966297;28;20071;-71
2023/07/18 00:16:23;;;;;;;4.80;2.03;;;;;;;14.58;71.26;101989.00;4964955;28;20051;-71
2023/07/18 00:18:51;;;;;;;6.85;2.05;;;;;;;14.57;71.54;101987.25;4965869;28;20101;-70
2023/07/18 00:21:18;;;;;;;7.40;2.50;;;;;;;14.50;71.63;101991.84;4964057;28;20484;-71
2023/07/18 00:23:46;;;;;;;5.10;2.35;;;;;;;14.46;71.75;101995.53;4964886;28;21237;-71
2023/07/18 00:26:13;;;;;;;6.35;2.40;;;;;;;14.43;72.03;101993.84;4967240;28;20061;-71
2023/07/18 00:28:40;;;;;;;6.22;2.80;;;;;;;14.42;72.49;101991.22;4965828;28;20286;-71
2023/07/18 00:31:09;;;;;;;5.90;3.28;;;;;;;14.41;72.88;101984.16;4996430;28;20043;-71
2023/07/18 00:33:36;;;;;;;9.35;3.78;;;;;;;14.40;73.19;101980.66;4979112;28;20039;-70
2023/07/18 00:36:05;;;;;;;6.15;3.45;;;;;;;14.40;73.50;101978.00;4980408;28;20423;-71
2023/07/18 00:38:32;;;;;;;8.35;3.85;;;;;;;14.37;73.57;101983.38;4964055;28;20043;-68
2023/07/18 00:40:59;;;;;;;7.97;3.58;;;;;;;14.36;73.82;101981.66;4966717;28;20046;-68
2023/07/18 00:43:32;;;;;;;8.35;3.67;;;;;;;14.34;74.04;101982.59;4976403;28;20109;-69
2023/07/18 00:46:01;;;;;;;6.22;3.85;;;;;;;14.29;74.16;101983.59;4965212;28;20542;-68
2023/07/18 00:48:34;;;;;;;7.60;3.97;;;;;;;14.27;74.20;101977.50;4962794;28;20118;-68
2023/07/18 00:51:07;;;;;;;8.55;4.00;;;;;;;14.26;74.59;101985.47;4963506;28;20343;-68
2023/07/18 00:53:39;;;;;;;6.85;4.30;;;;;;;14.25;75.06;101986.38;4963030;28;20038;-68
2023/07/18 00:56:06;;;;;;;8.18;4.50;;;;;;;14.25;75.14;101992.56;4957434;28;20042;-71
2023/07/18 00:58:34;;;;;;;9.38;4.72;;;;;;;14.25;75.45;102000.53;4953089;28;20054;-71
2023/07/18 01:01:03;;;;;;;10.35;4.30;;;;;;;14.25;75.88;101992.56;4965545;28;20047;-71
2023/07/18 01:03:30;;;;;;;12.82;5.25;;;;;;;14.23;76.04;101983.78;4997653;28;20049;-71
2023/07/18 01:05:57;;;;;;;9.77;5.28;;;;;;;14.25;76.45;101983.72;4963730;28;20527;-71
2023/07/18 01:08:25;;;;;;;8.20;5.07;;;;;;;14.25;76.78;101975.75;4996498;28;20038;-71
2023/07/18 01:10:52;;;;;;;9.70;5.05;;;;;;;14.23;77.07;101974.97;4966520;28;20038;-71
2023/07/18 01:13:19;;;;;;;11.07;5.63;;;;;;;14.24;77.13;101976.72;4976209;28;20046;-71
2023/07/18 01:15:46;;;;;;;9.82;5.88;;;;;;;14.24;77.76;101979.34;4968838;28;20142;-71
2023/07/18 01:18:14;;;;;;;9.93;5.35;;;;;;;14.23;78.15;101973.16;4962550;28;20050;-71
2023/07/18 01:20:44;;;;;;;10.30;6.20;;;;;;;14.22;78.12;101974.06;4967126;28;20046;-71
2023/07/18 01:23:13;;;;;;;10.45;6.32;;;;;;;14.20;78.11;101970.59;4967429;28;20150;-71
2023/07/18 01:25:42;;;;;;;10.35;5.55;;;;;;;14.19;78.04;101979.50;4956956;28;20039;-71
2023/07/18 01:28:10;;;;;;;11.25;6.32;;;;;;;14.17;78.36;101976.00;4959756;28;20490;-71
2023/07/18 01:30:38;;;;;;;8.50;5.88;;;;;;;14.14;78.49;101976.94;4962779;28;20050;-71
2023/07/18 01:33:06;;;;;;;9.68;6.20;;;;;;;14.11;78.92;101979.69;4962383;28;20043;-71
2023/07/18 01:35:33;;;;;;;9.82;6.25;;;;;;;14.09;79.16;101975.34;4966140;28;20047;-71
2023/07/18 01:38:00;;;;;;;9.43;6.22;;;;;;;14.08;79.48;101968.31;4957363;28;20053;-71
2023/07/18 01:40:28;;;;;;;10.02;5.97;;;;;;;14.04;79.81;101970.13;4962171;28;20702;-71
2023/07/18 01:42:57;;;;;;;9.15;5.40;;;;;;;14.01;79.71;101966.69;4958364;28;20105;-72
2023/07/18 01:45:30;;;;;;;9.98;6.22;;;;;;;13.95;79.73;101968.63;4992827;28;20655;-72
2023/07/18 01:47:59;;;;;;;12.40;7.00;;;;;;;13.91;79.96;101964.28;4962996;28;20125;-72
2023/07/18 01:50:27;;;;;;;12.38;6.03;;;;;;;13.87;80.68;101961.78;4961822;28;20038;-71
2023/07/18 01:52:55;;;;;;;11.13;6.43;;;;;;;13.80;80.77;101959.28;4961620;28;20122;-72
2023/07/18 01:55:23;;;;;;;10.40;6.28;;;;;;;13.74;80.70;101961.22;4956381;28;20050;-71
2023/07/18 01:57:50;;;;;;;9.73;5.88;;;;;;;13.70;80.93;101960.44;4956459;28;20409;-72
2023/07/18 02:00:20;;;;;;;12.90;6.18;;;;;;;13.69;81.41;101963.09;4980985;28;20097;-72
2023/07/18 02:02:53;;;;;;;9.52;6.30;;;;;;;13.67;81.31;101952.56;4962663;28;20050;-71
2023/07/18 02:05:24;;;;;;;11.40;6.20;;;;;;;13.66;81.71;101956.13;4968193;28;20066;-70
2023/07/18 02:07:52;;;;;;;9.73;5.35;;;;;;;13.64;81.45;101952.63;4965930;28;20097;-70
2023/07/18 02:10:21;;;;;;;9.32;5.80;;;;;;;13.61;81.31;101948.28;4967353;28;20079;-70
2023/07/18 02:12:51;;;;;;;9.60;5.70;;;;;;;13.58;81.40;101945.69;4964990;28;20404;-69
2023/07/18 02:15:20;;;;;;;8.07;5.55;;;;;;;13.55;81.49;101947.56;4999767;28;20047;-70
2023/07/18 02:17:48;;;;;;;12.50;6.10;;;;;;;13.50;81.34;101947.69;4966014;28;20043;-69
2023/07/18 02:20:17;;;;;;;8.70;5.70;;;;;;;13.48;81.79;101946.88;4969166;28;20053;-70
2023/07/18 02:22:45;;;;;;;9.52;6.38;;;;;;;13.45;81.94;101939.84;4965016;28;20054;-69
2023/07/18 02:25:17;;;;;;;11.23;6.53;;;;;;;13.42;82.00;101939.06;4962829;28;20046;-69
2023/07/18 02:27:45;;;;;;;9.75;6.10;;;;;;;13.39;82.22;101937.38;4963526;28;20582;-69
2023/07/18 02:30:13;;;;;;;10.48;6.20;;;;;;;13.38;82.07;101932.09;4962352;28;20046;-70
2023/07/18 02:32:44;;;;;;;9.82;6.45;;;;;;;13.35;82.85;101931.25;4964234;28;20058;-70
2023/07/18 02:35:17;;;;;;;12.23;7.38;;;;;;;13.33;82.93;101926.88;4999390;28;20109;-70
2023/07/18 02:37:46;;;;;;;14.63;7.40;;;;;;;13.30;83.02;101930.47;4967611;28;20047;-70
2023/07/18 02:40:15;;;;;;;11.13;7.40;;;;;;;13.27;83.06;101927.03;4966814;28;20042;-70
2023/07/18 02:42:42;;;;;;;12.25;7.57;;;;;;;13.28;83.23;101920.84;4967005;28;20440;-70
2023/07/18 02:45:10;;;;;;;12.63;7.63;;;;;;;13.26;83.63;101928.81;4962884;28;20050;-70
2023/07/18 02:47:39;;;;;;;16.23;8.13;;;;;;;13.26;84.06;101927.94;4964114;28;20039;-70
2023/07/18 02:50:08;;;;;;;11.52;7.70;;;;;;;13.25;84.06;101926.19;4967168;28;20149;-70
2023/07/18 02:52:36;;;;;;;13.07;8.20;;;;;;;13.22;84.11;101927.16;4966912;28;20467;-70
2023/07/18 02:55:03;;;;;;;14.48;8.75;;;;;;;13.20;84.60;101928.94;4967376;28;20725;-70
2023/07/18 02:57:31;;;;;;;14.93;8.40;;;;;;;13.16;84.70;101922.88;4966546;28;20070;-70
2023/07/18 02:59:59;;;;;;;13.38;8.20;;;;;;;13.14;84.81;101923.81;4966605;28;20098;-71
2023/07/18 03:02:28;;;;;;;12.48;7.80;;;;;;;13.13;84.73;101922.06;4964672;28;20097;-70
2023/07/18 03:04:56;;;;;;;11.38;7.15;;;;;;;13.10;84.83;101924.78;4955805;28;20074;-70
2023/07/18 03:07:23;;;;;;;12.43;7.03;;;;;;;13.05;84.64;101931.06;4973137;28;20058;-70
2023/07/18 03:09:50;;;;;;;10.45;7.32;;;;;;;13.00;84.48;101927.66;4965931;28;20105;-70
2023/07/18 03:12:18;;;;;;;11.05;7.47;;;;;;;12.97;84.43;101927.72;4966683;28;20139;-70
2023/07/18 03:14:45;;;;;;;8.85;6.80;;;;;;;12.94;84.60;101932.22;4968513;28;20042;-70
2023/07/18 03:17:12;;;;;;;11.60;7.47;;;;;;;12.89;84.55;101933.19;4967355;28;20042;-69
2023/07/18 03:19:39;;;;;;;10.55;8.10;;;;;;;12.88;84.49;101938.50;4980230;28;20035;-69
2023/07/18 03:22:06;;;;;;;9.77;7.40;;;;;;;12.83;84.38;101935.97;4963614;28;20050;-69
2023/07/18 03:24:35;;;;;;;17.38;8.75;;;;;;;12.82;84.63;101931.56;4997848;28;20039;-69
2023/07/18 03:27:03;;;;;;;11.60;8.15;;;;;;;12.83;84.98;101925.38;4966371;28;20043;-69
2023/07/18 03:29:30;;;;;;;16.55;8.70;;;;;;;12.83;85.23;101929.81;4994995;28;20078;-70
2023/07/18 03:32:00;;;;;;;10.57;8.40;;;;;;;12.85;85.51;101934.16;4956567;28;20038;-70
2023/07/18 03:34:28;;;;;;;13.45;8.77;;;;;;;12.88;85.73;101934.09;4956346;28;20057;-70
2023/07/18 03:36:56;;;;;;;13.82;9.80;;;;;;;12.91;85.79;101937.59;4968232;28;20118;-71
2023/07/18 03:39:23;;;;;;;16.65;9.93;;;;;;;12.93;86.05;101938.41;4967199;28;20101;-71
2023/07/18 03:41:50;;;;;;;11.80;8.60;;;;;;;12.94;85.99;101941.03;4966267;28;20530;-70
2023/07/18 03:44:17;;;;;;;15.98;8.77;;;;;;;12.96;86.22;101939.22;4967321;28;20070;-70
2023/07/18 03:46:45;;;;;;;12.85;8.95;;;;;;;12.98;86.25;101932.09;4965633;28;20059;-71
2023/07/18 03:49:12;;;;;;;13.98;8.55;;;;;;;13.00;86.28;101934.72;4965215;28;20054;-70
2023/07/18 03:51:39;;;;;;;14.85;8.30;;;;;;;12.99;86.41;101935.63;4964740;28;20050;-70
2023/07/18 03:54:09;;;;;;;14.05;8.85;;;;;;;12.99;86.39;101935.63;4967420;28;20613;-70
2023/07/18 03:56:36;;;;;;;12.63;7.85;;;;;;;12.97;86.29;101940.09;4968036;28;20533;-70
2023/07/18 03:59:03;;;;;;;12.48;8.40;;;;;;;12.94;86.08;101937.50;4965653;28;20141;-71
2023/07/18 04:01:31;;;;;;;12.63;8.02;;;;;;;12.92;86.10;101931.41;4967877;28;20471;-70
2023/07/18 04:03:58;;;;;;;11.30;8.25;;;;;;;12.90;86.43;101926.13;4967329;28;20435;-70
2023/07/18 04:06:25;;;;;;;11.68;8.05;;;;;;;12.89;86.19;101929.66;4962399;28;20039;-70
2023/07/18 04:08:53;;;;;;;14.07;8.95;;;;;;;12.86;86.11;101925.31;4966416;28;20427;-71
2023/07/18 04:11:21;;;;;;;13.05;8.15;;;;;;;12.88;86.15;101925.28;4966765;28;20058;-70
2023/07/18 04:13:48;;;;;;;12.35;8.10;;;;;;;12.91;86.08;101916.41;4965641;28;20047;-70
2023/07/18 04:16:16;;;;;;;16.65;8.25;;;;;;;12.94;86.12;101916.31;4964740;28;20411;-70
2023/07/18 04:18:44;;;;;;;12.57;8.27;;;;;;;12.97;86.14;101925.06;4964219;28;20043;-70
2023/07/18 04:21:11;;;;;;;11.90;8.02;;;;;;;12.99;86.05;101922.41;4995112;28;20046;-70
2023/07/18 04:23:38;;;;;;;11.25;7.75;;;;;;;13.00;86.06;101913.56;4966990;28;20046;-70
2023/07/18 04:26:08;;;;;;;10.05;7.45;;;;;;;13.02;85.83;101914.41;4965308;28;20071;-71
2023/07/18 04:28:36;;;;;;;10.45;7.20;;;;;;;13.05;85.81;101914.31;4963321;28;20051;-71
2023/07/18 04:31:04;;;;;;;13.38;8.60;;;;;;;13.07;85.74;101912.50;4965656;28;20050;-70
2023/07/18 04:33:34;;;;;;;15.63;8.20;;;;;;;13.08;nan;101916.00;4956394;28;20047;-70
2023/07/18 04:36:04;;;;;;;13.32;8.20;;;;;;;13.09;85.92;101907.16;4962902;28;20130;-71
2023/07/18 04:38:31;;;;;;;9.73;7.50;;;;;;;13.12;85.63;101909.75;4963667;28;20069;-70
2023/07/18 04:40:59;;;;;;;12.40;7.57;;;;;;;13.16;85.41;101908.78;4962859;28;20039;-70
2023/07/18 04:43:27;;;;;;;10.05;7.38;;;;;;;13.20;85.61;101908.66;4966896;28;20444;-71
2023/07/18 04:45:54;;;;;;;13.75;7.90;;;;;;;13.24;85.68;101913.84;4962153;28;20054;-70
2023/07/18 04:48:21;;;;;;;9.38;7.03;;;;;;;13.30;85.55;101909.28;4960200;28;20046;-70
2023/07/18 04:50:58;;;;;;;10.95;7.43;;;;;;;13.50;85.33;101915.88;4961604;28;20047;-70
2023/07/18 04:53:30;;;;;;;12.68;7.88;;;;;;;13.68;85.28;101909.25;4962399;28;20451;-69
2023/07/18 04:55:57;;;;;;;11.45;7.30;;;;;;;14.28;83.99;101904.06;4964517;28;20153;-70
2023/07/18 04:58:26;;;;;;;9.73;6.28;;;;;;;14.91;82.32;101904.84;4963926;28;20151;-70
2023/07/18 05:00:55;;;;;;;8.52;6.38;;;;;;;15.14;81.57;101895.28;4965440;28;20126;-70
2023/07/18 05:03:24;;;;;;;12.60;7.03;;;;;;;15.35;80.57;101898.16;4966732;28;20546;-70
2023/07/18 05:05:53;;;;;;;9.27;5.82;;;;;;;15.44;79.80;101896.97;4963152;28;20058;-70
2023/07/18 05:08:21;;;;;;;8.10;5.88;;;;;;;15.42;79.39;101893.50;4966859;28;20459;-70
2023/07/18 05:10:49;;;;;;;9.15;5.82;;;;;;;15.36;79.35;101892.78;4965607;28;20385;-70
2023/07/18 05:13:17;;;;;;;8.27;5.47;;;;;;;15.24;79.47;101892.31;4966790;28;20514;-70
2023/07/18 05:15:44;;;;;;;9.27;5.50;;;;;;;15.32;79.46;101893.81;4963450;28;20055;-70
2023/07/18 05:18:11;;;;;;;9.55;5.65;;;;;;;15.69;78.60;101892.53;4966208;28;20051;-70
2023/07/18 05:20:38;;;;;;;14.70;6.15;;;;;;;15.78;78.79;101894.00;4964741;28;20484;-70
2023/07/18 05:23:06;;;;;;;10.82;5.53;;;;;;;16.35;77.65;101904.38;4964992;28;20412;-70
2023/07/18 05:25:33;;;;;;;10.43;5.25;;;;;;;18.73;71.67;101895.25;4962100;28;20043;-70
2023/07/18 05:28:01;;;;;;;11.38;4.60;;;;;;;19.89;67.42;101888.66;4961717;28;20125;-70
2023/07/18 05:30:28;;;;;;;15.20;5.13;;;;;;;19.38;67.63;101892.97;4961449;28;20114;-71
2023/07/18 05:32:55;;;;;;;17.75;5.90;;;;;;;19.36;67.74;101897.50;4961660;28;20043;-70
2023/07/18 05:35:22;;;;;;;8.52;4.90;;;;;;;21.53;62.58;101903.56;4966263;28;20046;-71
2023/07/18 05:37:49;;;;;;;11.98;4.65;;;;;;;23.66;56.99;101893.59;4963482;28;20042;-71
2023/07/18 05:40:17;;;;;;;8.43;4.32;;;;;;;25.40;51.75;101898.13;4966335;28;20519;-70
2023/07/18 05:42:48;;;;;;;8.68;3.88;;;;;;;26.87;47.45;101893.72;4963984;28;20058;-71
2023/07/18 05:45:16;;;;;;;8.88;3.63;;;;;;;27.96;44.48;101897.09;4967142;28;20511;-71
2023/07/18 05:47:43;;;;;;;9.32;3.58;;;;;;;28.87;42.02;101898.97;4969167;28;20407;-71
2023/07/18 05:50:12;;;;;;;4.80;2.97;;;;;;;29.67;39.58;101898.75;4970692;28;20051;-71
2023/07/18 05:52:39;;;;;;;10.35;3.70;;;;;;;30.32;37.78;101902.56;4969892;28;20074;-71
2023/07/18 05:55:07;;;;;;;8.57;3.28;;;;;;;30.86;36.84;101896.34;4969753;28;20666;-71
2023/07/18 05:57:35;;;;;;;9.93;3.75;;;;;;;31.32;35.58;101899.00;4971521;28;20522;-71
2023/07/18 06:00:05;;;;;;;7.63;3.25;;;;;;;31.72;34.38;101893.00;4978390;28;20503;-71
2023/07/18 06:02:38;;;;;;;11.15;3.20;;;;;;;32.12;33.46;101898.81;4970392;28;20043;-71
2023/07/18 06:05:06;;;;;;;6.10;2.47;;;;;;;32.47;32.60;101894.22;4970044;28;20053;-71
2023/07/18 06:07:34;;;;;;;4.80;2.50;;;;;;;32.70;30.99;101893.59;4969495;28;20499;-71
2023/07/18 06:10:01;;;;;;;4.15;2.42;;;;;;;32.74;30.30;101892.22;4969430;28;20439;-71
2023/07/18 06:12:28;;;;;;;7.28;2.60;;;;;;;32.76;30.51;101902.97;4969309;28;20133;-71
2023/07/18 06:14:56;;;;;;;11.63;3.08;;;;;;;32.67;29.10;101900.22;4970022;28;20549;-71
2023/07/18 06:17:23;;;;;;;7.82;2.42;;;;;;;31.78;29.71;101902.41;4969697;28;20270;-71
2023/07/18 06:19:50;;;;;;;7.45;2.22;;;;;;;29.44;32.69;101909.97;4969358;28;20469;-71
2023/07/18 06:22:18;;;;;;;16.23;3.40;;;;;;;26.89;36.66;101899.88;4968372;28;20451;-71
2023/07/18 06:24:47;;;;;;;11.15;2.70;;;;;;;24.96;39.66;101908.59;4971282;28;20038;-71
2023/07/18 06:27:14;;;;;;;9.57;2.60;;;;;;;23.45;42.47;101907.56;4963616;28;20113;-71
2023/07/18 06:29:41;;;;;;;12.95;3.25;;;;;;;22.39;44.65;101913.50;4966953;28;20043;-71
2023/07/18 06:32:08;;;;;;;9.18;2.53;;;;;;;21.58;46.42;101917.56;4967308;28;20414;-71
2023/07/18 06:34:40;;;;;;;8.68;3.00;;;;;;;20.89;48.05;101917.13;4976442;28;20105;-71
2023/07/18 06:37:08;;;;;;;6.10;2.80;;;;;;;20.36;49.96;101913.75;4976060;28;20039;-71
2023/07/18 06:39:38;;;;;;;8.13;2.65;;;;;;;19.99;51.58;101916.63;4968833;28;20079;-71
2023/07/18 06:42:08;;;;;;;15.63;3.40;;;;;;;19.69;52.33;101914.56;4969257;28;20046;-71
2023/07/18 06:44:36;;;;;;;5.07;2.50;;;;;;;19.44;53.56;101914.97;4967958;28;20051;-71
2023/07/18 06:47:03;;;;;;;9.02;2.92;;;;;;;19.24;54.08;101915.06;4965694;28;20042;-71
2023/07/18 06:49:31;;;;;;;8.27;2.80;;;;;;;19.05;54.85;101906.22;4967256;28;20038;-71
2023/07/18 06:51:58;;;;;;;11.38;2.72;;;;;;;18.96;55.45;101906.66;4967980;28;20081;-71
2023/07/18 06:54:25;;;;;;;7.28;2.70;;;;;;;18.94;56.04;101901.38;4966070;28;20050;-71
2023/07/18 06:56:52;;;;;;;7.40;2.97;;;;;;;18.88;56.05;101899.84;4968256;28;20047;-70
2023/07/18 06:59:19;;;;;;;10.40;3.10;;;;;;;18.81;56.49;101903.75;4967805;28;20042;-71
2023/07/18 07:01:46;;;;;;;19.05;3.95;;;;;;;18.76;56.72;101903.97;4968857;28;20039;-71
2023/07/18 07:04:14;;;;;;;6.72;3.05;;;;;;;18.73;57.09;101893.44;4964837;28;20057;-71
2023/07/18 07:06:42;;;;;;;8.33;2.73;;;;;;;18.75;57.21;101898.72;4976664;28;20054;-71
2023/07/18 07:09:12;;;;;;;17.95;4.07;;;;;;;18.75;57.67;101898.72;4973683;28;20419;-71
2023/07/18 07:11:41;;;;;;;6.45;2.72;;;;;;;18.79;58.00;101902.97;4969844;28;20046;-71
2023/07/18 07:14:09;;;;;;;6.68;2.72;;;;;;;18.79;58.01;101897.63;4968345;28;20089;-71
2023/07/18 07:16:36;;;;;;;4.95;2.78;;;;;;;18.82;57.09;101899.28;4967522;28;20379;-71
2023/07/18 07:19:05;;;;;;;18.05;3.20;;;;;;;18.81;57.06;101903.75;4968790;28;20047;-70
2023/07/18 07:21:32;;;;;;;7.15;2.17;;;;;;;18.86;57.43;101898.19;4966386;28;20411;-71
2023/07/18 07:24:00;;;;;;;14.90;3.20;;;;;;;18.89;57.32;101898.06;4965128;28;20041;-70
2023/07/18 07:26:27;;;;;;;7.50;3.45;;;;;;;18.96;57.48;101898.66;4968634;28;20047;-71
2023/07/18 07:28:54;;;;;;;9.60;2.72;;;;;;;19.01;57.51;101893.94;4968015;28;20443;-71
2023/07/18 07:31:22;;;;;;;11.05;2.80;;;;;;;19.05;57.35;101895.53;4967602;28;20490;-70
2023/07/18 07:33:50;;;;;;;5.85;2.33;;;;;;;19.12;57.12;101896.09;4966418;28;20122;-70
2023/07/18 07:36:18;;;;;;;7.88;2.63;;;;;;;19.16;57.59;101900.31;4967973;28;20049;-70
2023/07/18 07:38:46;;;;;;;7.07;2.55;;;;;;;19.22;57.03;101895.53;4968611;28;20066;-71
2023/07/18 07:41:13;;;;;;;5.20;2.30;;;;;;;19.31;57.30;101893.34;4969035;28;20116;-71
2023/07/18 07:43:40;;;;;;;7.57;2.88;;;;;;;19.44;57.19;101885.56;4967902;28;20042;-72
2023/07/18 07:46:07;;;;;;;3.70;2.20;;;;;;;19.58;57.27;101893.75;4965704;28;20073;-71
2023/07/18 07:48:35;;;;;;;19.17;3.42;;;;;;;19.66;56.58;101888.00;4957441;28;20438;-70
2023/07/18 07:51:03;;;;;;;4.53;2.47;;;;;;;19.74;56.63;101884.94;4967764;28;20503;-72
2023/07/18 07:53:31;;;;;;;6.20;2.60;;;;;;;19.79;56.58;101878.38;4967532;28;20500;-71
2023/07/18 07:55:58;;;;;;;10.32;3.55;;;;;;;19.85;55.74;101886.13;4967375;28;20309;-71
2023/07/18 07:58:25;;;;;;;5.50;2.53;;;;;;;19.91;56.25;101881.38;4967162;28;20436;-72
2023/07/18 08:00:52;;;;;;;7.28;2.53;;;;;;;19.95;55.40;101883.81;4967885;28;20387;-72
2023/07/18 08:03:19;;;;;;;5.80;1.83;;;;;;;19.97;55.02;101881.91;4980068;28;20042;-71
2023/07/18 08:05:46;;;;;;;7.25;2.15;;;;;;;20.05;55.20;101878.84;4968778;28;20050;-71
2023/07/18 08:08:13;;;;;;;3.00;1.90;;;;;;;20.21;54.11;101883.34;4968385;28;20109;-71
2023/07/18 08:10:41;;;;;;;17.85;3.10;;;;;;;20.28;52.73;101882.06;4967347;28;20047;-71
2023/07/18 08:13:08;;;;;;;16.85;2.60;;;;;;;20.32;53.39;101881.81;4967092;28;20134;-72
2023/07/18 08:15:35;;;;;;;8.65;2.60;;;;;;;20.43;52.62;101872.31;4967314;28;20046;-72
2023/07/18 08:18:02;;;;;;;7.68;2.47;;;;;;;20.52;53.07;101876.28;4967011;28;20043;-72
2023/07/18 08:20:32;;;;;;;21.33;2.97;;;;;;;20.57;52.55;101883.13;4968171;28;20467;-71
2023/07/18 08:22:59;;;;;;;12.65;2.40;;;;;;;20.61;51.82;101878.44;4980848;28;20094;-72
2023/07/18 08:25:26;;;;;;;12.40;2.67;;;;;;;20.68;52.22;101878.97;4972833;28;20117;-72
2023/07/18 08:27:55;;;;;;;11.57;2.20;;;;;;;20.74;52.10;101874.16;4966246;28;20046;-73
2023/07/18 08:30:22;;;;;;;15.10;2.10;;;;;;;20.84;51.88;101870.94;4966400;28;20074;-71
2023/07/18 08:32:49;;;;;;;9.23;2.17;;;;;;;20.96;51.78;101862.19;4965048;28;20242;-71
2023/07/18 08:35:16;;;;;;;7.97;2.00;;;;;;;21.12;51.43;101862.16;4967012;28;20491;-71
2023/07/18 08:37:43;;;;;;;4.13;1.25;;;;;;;21.23;50.88;101865.09;4958023;28;20050;-71
2023/07/18 08:40:12;;;;;;;14.27;2.33;;;;;;;21.34;49.04;101867.09;4967362;28;20141;-71
2023/07/18 08:42:39;;;;;;;7.97;1.80;;;;;;;21.37;48.86;101866.06;4966292;28;20089;-72
2023/07/18 08:45:09;;;;;;;5.80;1.50;;;;;;;21.45;48.58;101862.91;4961951;28;20043;-71
2023/07/18 08:47:37;;;;;;;9.60;1.50;;;;;;;21.50;48.80;101858.16;4963900;28;20411;-70
2023/07/18 08:50:09;;;;;;;8.23;1.63;;;;;;;21.58;47.98;101847.81;4966970;28;20039;-70
2023/07/18 08:52:36;;;;;;;17.88;2.20;;;;;;;21.61;47.97;101855.72;4967252;28;20507;-71
2023/07/18 08:55:05;;;;;;;2.92;0.98;;;;;;;21.70;48.60;101844.41;4965720;28;20492;-70
2023/07/18 08:57:33;;;;;;;5.15;1.50;;;;;;;21.81;48.02;101849.09;4965633;28;20050;-70
2023/07/18 09:00:04;;;;;;;4.15;1.15;;;;;;;21.87;48.18;101840.66;4963772;28;20050;-70
2023/07/18 09:02:31;;;;;;;19.45;2.92;;;;;;;21.95;47.75;101833.97;4963156;28;20129;-70
2023/07/18 09:04:59;;;;;;;6.95;1.23;;;;;;;22.07;46.81;101817.09;4966089;28;20573;-71
2023/07/18 09:07:35;;;;;;;2.45;0.85;;;;;;;22.19;46.83;101831.53;4967045;28;20089;-71
2023/07/18 09:10:05;;;;;;;3.58;0.70;;;;;;;22.33;46.53;101827.97;4966119;28;20043;-71
2023/07/18 09:12:35;;;;;;;4.38;1.27;;;;;;;22.44;45.23;101812.03;4964186;28;20047;-70
2023/07/18 09:15:03;;;;;;;2.90;1.05;;;;;;;22.56;45.43;101822.94;4966245;28;20050;-70
2023/07/18 09:17:32;;;;;;;6.80;0.80;;;;;;;22.67;45.18;101815.03;4965132;28;20051;-70
2023/07/18 09:20:07;;;;;;;3.97;0.82;;;;;;;22.75;44.99;101812.72;4965717;28;20053;-70
2023/07/18 09:22:35;;;;;;;5.85;0.73;;;;;;;22.83;43.74;101809.50;4971739;28;20050;-70
2023/07/18 09:25:03;;;;;;;1.95;0.50;;;;;;;22.91;43.39;101806.28;4964589;28;20052;-70
2023/07/18 09:27:30;;;;;;;3.83;0.90;;;;;;;22.98;42.97;101815.69;4964770;28;20526;-71
2023/07/18 09:29:57;;;;;;;2.17;0.70;;;;;;;23.03;42.86;101805.47;4971336;28;20042;-71
2023/07/18 09:32:24;;;;;;;1.80;0.70;;;;;;;22.96;41.72;101806.84;4964352;28;20606;-71
2023/07/18 09:34:55;;;;;;;7.43;0.75;;;;;;;23.00;42.78;101797.59;4965778;28;20070;-70
2023/07/18 09:37:23;;;;;;;2.75;0.50;;;;;;;23.21;42.92;101803.38;4965479;28;20066;-71
2023/07/18 09:39:51;;;;;;;2.53;0.52;;;;;;;23.44;42.70;101805.44;4966276;28;20118;-71
2023/07/18 09:42:19;;;;;;;4.00;0.52;;;;;;;23.64;41.55;101810.25;4963814;28;20054;-71
2023/07/18 09:44:49;;;;;;;5.53;0.88;;;;;;;23.78;41.65;101803.91;4961961;28;20399;-71
2023/07/18 09:47:20;;;;;;;3.38;0.70;;;;;;;23.92;41.24;101800.22;4959447;28;20101;-70
2023/07/18 09:49:49;;;;;;;2.45;0.55;;;;;;;23.96;40.92;101798.22;4964695;28;20151;-71
2023/07/18 09:52:23;;;;;;;1.95;0.35;;;;;;;23.87;41.04;101792.47;4962793;28;20062;-70
2023/07/18 09:54:53;;;;;;;1.77;0.50;;;;;;;23.88;41.26;101796.03;4965170;28;20052;-71
2023/07/18 09:57:21;;;;;;;9.20;0.93;;;;;;;24.01;41.23;101791.50;4964967;28;20054;-71
2023/07/18 09:59:50;;;;;;;2.35;0.60;;;;;;;24.27;40.21;101791.44;4964122;28;20049;-71
2023/07/18 10:02:17;;;;;;;8.48;1.27;;;;;;;24.57;40.09;101797.38;4966967;28;20046;-71
2023/07/18 10:04:46;;;;;;;4.32;0.70;;;;;;;24.93;39.69;101804.50;4967789;28;20039;-71
2023/07/18 10:07:16;;;;;;;4.43;0.80;;;;;;;25.07;37.49;101789.09;4965656;28;20051;-71
2023/07/18 10:09:46;;;;;;;6.05;0.73;;;;;;;24.93;37.14;101796.41;4967226;28;20051;-71
2023/07/18 10:12:13;;;;;;;1.95;0.75;;;;;;;24.56;37.47;101787.56;4965811;28;20043;-71
2023/07/18 10:14:50;;;;;;;2.25;0.65;;;;;;;24.19;38.69;101792.00;4973745;28;20117;-71
2023/07/18 10:17:41;;;;;;;5.28;0.70;;;;;;;24.01;39.54;101790.66;4969995;28;20165;-71
2023/07/18 10:20:13;;;;;;;3.45;0.60;;;;;;;23.88;39.27;101775.34;4958962;28;20387;-71
2023/07/18 10:22:50;;;;;;;3.38;0.70;;;;;;;23.77;38.96;101782.47;4965048;28;20420;-71
2023/07/18 10:25:19;;;;;;;2.80;0.73;;;;;;;23.86;39.80;101785.34;4964448;28;20124;-71
2023/07/18 10:27:48;;;;;;;15.73;1.55;;;;;;;24.02;39.24;101770.84;4964792;28;20031;-71
2023/07/18 10:30:23;;;;;;;9.02;1.38;;;;;;;24.12;39.35;101776.38;4967197;28;20053;-71
2023/07/18 10:32:52;;;;;;;24.45;2.08;;;;;;;24.27;39.41;101766.31;4965788;28;20054;-71
2023/07/18 10:35:26;;;;;;;2.17;0.40;;;;;;;24.41;38.92;101763.47;4966008;28;20555;-71
2023/07/18 10:38:03;;;;;;;4.53;0.75;;;;;;;24.49;38.45;101762.91;4968278;28;20154;-71
2023/07/18 10:40:43;;;;;;;2.80;0.70;;;;;;;24.41;38.72;101752.69;4971836;28;20216;-71
2023/07/18 10:43:18;;;;;;;8.50;0.95;;;;;;;24.49;38.73;101755.66;4967151;28;20138;-71
2023/07/18 10:45:46;;;;;;;3.95;0.50;;;;;;;24.53;36.46;101742.81;4968183;28;20069;-70
2023/07/18 10:48:20;;;;;;;2.70;0.60;;;;;;;24.40;37.63;101729.41;4967481;28;20049;-70
2023/07/18 10:50:48;;;;;;;2.10;0.38;;;;;;;24.27;38.26;101734.00;4967254;28;20427;-70
2023/07/18 10:53:20;;;;;;;1.67;0.40;;;;;;;24.29;37.07;101732.91;4966322;28;20240;-70
2023/07/18 10:55:48;;;;;;;2.25;0.47;;;;;;;24.43;37.39;101725.63;4966784;28;20042;-70
2023/07/18 10:58:19;;;;;;;2.80;0.50;;;;;;;24.68;36.93;101731.84;4967746;28;20049;-72
2023/07/18 11:00:49;;;;;;;1.83;0.30;;;;;;;24.94;35.86;101738.81;4964291;28;20519;-71
2023/07/18 11:03:30;;;;;;;5.43;0.60;;;;;;;25.02;35.36;101722.03;4997945;28;20065;-71
2023/07/18 11:05:57;;;;;;;3.63;0.50;;;;;;;25.12;35.38;101716.78;4962992;28;20097;-71
2023/07/18 11:08:27;;;;;;;5.15;0.52;;;;;;;25.20;33.94;101724.25;4965722;28;20047;-70
2023/07/18 11:10:58;;;;;;;2.28;0.45;;;;;;;25.10;34.06;101725.00;4965592;28;20042;-71
2023/07/18 11:13:34;;;;;;;8.70;0.82;;;;;;;25.01;35.00;101719.47;4965846;28;20034;-69
2023/07/18 11:16:06;;;;;;;6.20;0.85;;;;;;;25.04;36.46;101708.41;4968906;28;20045;-70
2023/07/18 11:18:40;;;;;;;9.35;1.63;;;;;;;25.25;36.83;101711.28;4971172;28;20046;-68
2023/07/18 11:21:08;;;;;;;;;;;;;;;25.41;37.02;101709.09;4968876;28;20035;-70
2023/07/18 11:23:37;;;;;;;11.32;1.38;;;;;;;25.60;36.52;101706.78;4964262;28;19929;-70
2023/07/18 11:26:18;;;;;;;4.88;0.70;;;;;;;25.79;35.74;101693.47;4966757;28;20046;-70
2023/07/18 11:28:53;;;;;;;1.27;0.30;;;;;;;25.96;35.22;101691.22;4965044;28;20054;-70